sensor_id;sensor_type;location;lat;lon;timestamp;P1;durP1;ratioP1;P2;durP2;ratioP2
1947;SDS011;974;52.400;9.818;2022-09-03T00:01:26;2.00;;;0.60;;
1947;SDS011;974;52.400;9.818;2022-09-03T00:04:02;2.00;;;0.60;;
1947;SDS011;974;52.400;9.818;2022-09-03T00:06:36;2.00;;;0.60;;
1947;SDS011;974;52.400;9.818;2022-09-03T00:11:51;2.00;;;0.60;;
1947;SDS011;974;52.400;9.818;2022-09-03T00:14:45;2.00;;;0.60;;
1947;SDS011;974;52.400;9.818;2022-09-03T00:17:16;2.00;;;0.60;;
1947;SDS011;974;52.400;9.818;2022-09-03T00:19:55;2.00;;;0.60;;
1947;SDS011;974;52.400;9.818;2022-09-03T00:22:28;2.00;;;0.60;;
1947;SDS011;974;52.400;9.818;2022-09-03T00:24:57;2.00;;;0.60;;
1947;SDS011;974;52.400;9.818;2022-09-03T00:27:27;2.00;;;0.60;;
1947;SDS011;974;52.400;9.818;2022-09-03T00:29:54;2.00;;;0.60;;
1947;SDS011;974;52.400;9.818;2022-09-03T00:32:44;2.00;;;0.60;;
1947;SDS011;974;52.400;9.818;2022-09-03T00:35:19;2.00;;;0.60;;
1947;SDS011;974;52.400;9.818;2022-09-03T00:37:50;2.00;;;0.60;;
1947;SDS011;974;52.400;9.818;2022-09-03T00:40:21;2.00;;;0.60;;
1947;SDS011;974;52.400;9.818;2022-09-03T00:46:08;2.00;;;0.60;;
1947;SDS011;974;52.400;9.818;2022-09-03T00:51:49;2.00;;;0.60;;
1947;SDS011;974;52.400;9.818;2022-09-03T00:54:40;2.00;;;0.60;;
1947;SDS011;974;52.400;9.818;2022-09-03T00:57:33;2.00;;;0.60;;
1947;SDS011;974;52.400;9.818;2022-09-03T01:02:55;2.00;;;0.60;;
1947;SDS011;974;52.400;9.818;2022-09-03T01:05:40;1.98;;;0.60;;
1947;SDS011;974;52.400;9.818;2022-09-03T01:13:55;2.00;;;0.60;;
1947;SDS011;974;52.400;9.818;2022-09-03T01:19:45;2.00;;;0.60;;
1947;SDS011;974;52.400;9.818;2022-09-03T01:25:11;2.00;;;0.60;;
1947;SDS011;974;52.400;9.818;2022-09-03T01:28:02;1.90;;;0.60;;
1947;SDS011;974;52.400;9.818;2022-09-03T01:30:34;2.00;;;0.70;;
1947;SDS011;974;52.400;9.818;2022-09-03T01:33:27;2.00;;;0.60;;
1947;SDS011;974;52.400;9.818;2022-09-03T01:36:03;1.90;;;0.60;;
1947;SDS011;974;52.400;9.818;2022-09-03T01:38:46;2.00;;;0.60;;
1947;SDS011;974;52.400;9.818;2022-09-03T01:41:26;1.95;;;0.60;;
1947;SDS011;974;52.400;9.818;2022-09-03T01:47:20;1.98;;;0.60;;
1947;SDS011;974;52.400;9.818;2022-09-03T01:50:06;2.00;;;0.60;;
1947;SDS011;974;52.400;9.818;2022-09-03T01:57:54;1.90;;;0.60;;
1947;SDS011;974;52.400;9.818;2022-09-03T02:00:30;1.90;;;0.60;;
1947;SDS011;974;52.400;9.818;2022-09-03T02:03:00;1.90;;;0.60;;
1947;SDS011;974;52.400;9.818;2022-09-03T02:05:29;1.92;;;0.60;;
1947;SDS011;974;52.400;9.818;2022-09-03T02:10:30;1.90;;;0.60;;
1947;SDS011;974;52.400;9.818;2022-09-03T02:13:06;1.92;;;0.60;;
1947;SDS011;974;52.400;9.818;2022-09-03T02:15:35;1.90;;;0.60;;
1947;SDS011;974;52.400;9.818;2022-09-03T02:18:05;1.90;;;0.60;;
1947;SDS011;974;52.400;9.818;2022-09-03T02:20:35;1.90;;;0.60;;
1947;SDS011;974;52.400;9.818;2022-09-03T02:23:02;1.90;;;0.60;;
1947;SDS011;974;52.400;9.818;2022-09-03T02:25:29;1.90;;;0.60;;
1947;SDS011;974;52.400;9.818;2022-09-03T02:27:58;1.90;;;0.60;;
1947;SDS011;974;52.400;9.818;2022-09-03T02:30:25;1.95;;;0.60;;
1947;SDS011;974;52.400;9.818;2022-09-03T02:32:51;2.00;;;0.60;;
1947;SDS011;974;52.400;9.818;2022-09-03T02:35:17;1.90;;;0.60;;
1947;SDS011;974;52.400;9.818;2022-09-03T02:37:42;1.93;;;0.60;;
1947;SDS011;974;52.400;9.818;2022-09-03T02:40:08;1.90;;;0.60;;
1947;SDS011;974;52.400;9.818;2022-09-03T02:42:34;1.90;;;0.60;;
1947;SDS011;974;52.400;9.818;2022-09-03T02:45:03;1.93;;;0.60;;
1947;SDS011;974;52.400;9.818;2022-09-03T02:47:38;1.92;;;0.60;;
1947;SDS011;974;52.400;9.818;2022-09-03T02:50:07;1.92;;;0.60;;
1947;SDS011;974;52.400;9.818;2022-09-03T02:52:32;1.90;;;0.60;;
1947;SDS011;974;52.400;9.818;2022-09-03T02:54:58;1.90;;;0.60;;
1947;SDS011;974;52.400;9.818;2022-09-03T02:57:23;2.00;;;0.60;;
1947;SDS011;974;52.400;9.818;2022-09-03T02:59:49;1.90;;;0.60;;
1947;SDS011;974;52.400;9.818;2022-09-03T03:02:15;1.90;;;0.60;;
1947;SDS011;974;52.400;9.818;2022-09-03T03:04:40;1.93;;;0.60;;
1947;SDS011;974;52.400;9.818;2022-09-03T03:07:06;1.90;;;0.60;;
1947;SDS011;974;52.400;9.818;2022-09-03T03:09:32;1.90;;;0.60;;
1947;SDS011;974;52.400;9.818;2022-09-03T03:11:57;1.90;;;0.60;;
1947;SDS011;974;52.400;9.818;2022-09-03T03:14:23;2.00;;;0.60;;
1947;SDS011;974;52.400;9.818;2022-09-03T03:16:49;1.90;;;0.60;;
1947;SDS011;974;52.400;9.818;2022-09-03T03:19:15;1.98;;;0.60;;
1947;SDS011;974;52.400;9.818;2022-09-03T03:21:40;1.90;;;0.60;;
1947;SDS011;974;52.400;9.818;2022-09-03T03:24:06;1.93;;;0.60;;
1947;SDS011;974;52.400;9.818;2022-09-03T03:26:32;1.90;;;0.60;;
1947;SDS011;974;52.400;9.818;2022-09-03T03:28:58;1.90;;;0.60;;
1947;SDS011;974;52.400;9.818;2022-09-03T03:31:26;1.95;;;0.60;;
1947;SDS011;974;52.400;9.818;2022-09-03T03:33:52;2.00;;;0.70;;
1947;SDS011;974;52.400;9.818;2022-09-03T03:36:20;1.92;;;0.60;;
1947;SDS011;974;52.400;9.818;2022-09-03T03:38:47;1.95;;;0.60;;
1947;SDS011;974;52.400;9.818;2022-09-03T03:41:14;1.90;;;0.60;;
1947;SDS011;974;52.400;9.818;2022-09-03T03:43:42;1.92;;;0.60;;
1947;SDS011;974;52.400;9.818;2022-09-03T03:46:08;1.97;;;0.60;;
1947;SDS011;974;52.400;9.818;2022-09-03T03:48:34;1.95;;;0.60;;
1947;SDS011;974;52.400;9.818;2022-09-03T03:51:01;1.90;;;0.60;;
1947;SDS011;974;52.400;9.818;2022-09-03T03:53:29;1.90;;;0.60;;
1947;SDS011;974;52.400;9.818;2022-09-03T03:55:55;1.90;;;0.60;;
1947;SDS011;974;52.400;9.818;2022-09-03T03:58:22;1.90;;;0.60;;
1947;SDS011;974;52.400;9.818;2022-09-03T04:00:48;1.93;;;0.60;;
1947;SDS011;974;52.400;9.818;2022-09-03T04:03:18;1.90;;;0.60;;
1947;SDS011;974;52.400;9.818;2022-09-03T04:05:53;1.90;;;0.60;;
1947;SDS011;974;52.400;9.818;2022-09-03T04:08:20;1.92;;;0.60;;
1947;SDS011;974;52.400;9.818;2022-09-03T04:10:45;1.93;;;0.60;;
1947;SDS011;974;52.400;9.818;2022-09-03T04:13:11;1.90;;;0.60;;
1947;SDS011;974;52.400;9.818;2022-09-03T04:15:36;1.93;;;0.60;;
1947;SDS011;974;52.400;9.818;2022-09-03T04:18:02;1.93;;;0.60;;
1947;SDS011;974;52.400;9.818;2022-09-03T04:20:28;2.00;;;0.60;;
1947;SDS011;974;52.400;9.818;2022-09-03T04:22:53;2.00;;;0.70;;
1947;SDS011;974;52.400;9.818;2022-09-03T04:25:19;2.00;;;0.63;;
1947;SDS011;974;52.400;9.818;2022-09-03T04:27:44;1.90;;;0.60;;
1947;SDS011;974;52.400;9.818;2022-09-03T04:30:10;1.93;;;0.60;;
1947;SDS011;974;52.400;9.818;2022-09-03T04:32:35;2.00;;;0.60;;
1947;SDS011;974;52.400;9.818;2022-09-03T04:35:20;1.95;;;0.60;;
1947;SDS011;974;52.400;9.818;2022-09-03T04:37:47;1.92;;;0.60;;
1947;SDS011;974;52.400;9.818;2022-09-03T04:40:13;2.00;;;0.60;;
1947;SDS011;974;52.400;9.818;2022-09-03T04:42:38;2.00;;;0.70;;
1947;SDS011;974;52.400;9.818;2022-09-03T04:45:04;2.00;;;0.60;;
1947;SDS011;974;52.400;9.818;2022-09-03T04:47:30;2.00;;;0.60;;
1947;SDS011;974;52.400;9.818;2022-09-03T04:49:56;2.00;;;0.60;;
1947;SDS011;974;52.400;9.818;2022-09-03T04:52:21;1.97;;;0.63;;
1947;SDS011;974;52.400;9.818;2022-09-03T04:54:48;2.00;;;0.63;;
1947;SDS011;974;52.400;9.818;2022-09-03T04:57:13;2.00;;;0.60;;
1947;SDS011;974;52.400;9.818;2022-09-03T04:59:39;1.97;;;0.60;;
1947;SDS011;974;52.400;9.818;2022-09-03T05:02:05;2.00;;;0.67;;
1947;SDS011;974;52.400;9.818;2022-09-03T05:04:31;2.00;;;0.70;;
1947;SDS011;974;52.400;9.818;2022-09-03T05:06:56;2.00;;;0.60;;
1947;SDS011;974;52.400;9.818;2022-09-03T05:09:22;1.97;;;0.60;;
1947;SDS011;974;52.400;9.818;2022-09-03T05:11:48;2.00;;;0.60;;
1947;SDS011;974;52.400;9.818;2022-09-03T05:14:13;2.00;;;0.60;;
1947;SDS011;974;52.400;9.818;2022-09-03T05:16:39;2.00;;;0.70;;
1947;SDS011;974;52.400;9.818;2022-09-03T05:19:04;1.97;;;0.60;;
1947;SDS011;974;52.400;9.818;2022-09-03T05:21:31;1.92;;;0.60;;
1947;SDS011;974;52.400;9.818;2022-09-03T05:23:58;2.00;;;0.60;;
1947;SDS011;974;52.400;9.818;2022-09-03T05:26:25;2.00;;;0.60;;
1947;SDS011;974;52.400;9.818;2022-09-03T05:28:53;1.98;;;0.60;;
1947;SDS011;974;52.400;9.818;2022-09-03T05:31:20;2.00;;;0.70;;
1947;SDS011;974;52.400;9.818;2022-09-03T05:33:47;1.98;;;0.60;;
1947;SDS011;974;52.400;9.818;2022-09-03T05:36:16;2.00;;;0.60;;
1947;SDS011;974;52.400;9.818;2022-09-03T05:38:44;2.00;;;0.60;;
1947;SDS011;974;52.400;9.818;2022-09-03T05:41:11;1.98;;;0.60;;
1947;SDS011;974;52.400;9.818;2022-09-03T05:43:38;1.90;;;0.60;;
1947;SDS011;974;52.400;9.818;2022-09-03T05:46:05;1.90;;;0.60;;
1947;SDS011;974;52.400;9.818;2022-09-03T05:48:33;1.92;;;0.60;;
1947;SDS011;974;52.400;9.818;2022-09-03T05:51:04;2.00;;;0.60;;
1947;SDS011;974;52.400;9.818;2022-09-03T05:53:41;2.00;;;0.60;;
1947;SDS011;974;52.400;9.818;2022-09-03T05:56:09;1.90;;;0.63;;
1947;SDS011;974;52.400;9.818;2022-09-03T05:58:40;1.90;;;0.60;;
1947;SDS011;974;52.400;9.818;2022-09-03T06:01:11;1.90;;;0.63;;
1947;SDS011;974;52.400;9.818;2022-09-03T06:03:41;2.00;;;0.68;;
1947;SDS011;974;52.400;9.818;2022-09-03T06:06:08;1.95;;;0.60;;
1947;SDS011;974;52.400;9.818;2022-09-03T06:08:34;1.90;;;0.60;;
1947;SDS011;974;52.400;9.818;2022-09-03T06:11:02;1.90;;;0.60;;
1947;SDS011;974;52.400;9.818;2022-09-03T06:13:28;1.90;;;0.60;;
1947;SDS011;974;52.400;9.818;2022-09-03T06:16:06;1.92;;;0.60;;
1947;SDS011;974;52.400;9.818;2022-09-03T06:18:32;1.90;;;0.60;;
1947;SDS011;974;52.400;9.818;2022-09-03T06:21:02;1.90;;;0.60;;
1947;SDS011;974;52.400;9.818;2022-09-03T06:23:30;1.90;;;0.60;;
1947;SDS011;974;52.400;9.818;2022-09-03T06:28:31;1.90;;;0.60;;
1947;SDS011;974;52.400;9.818;2022-09-03T06:30:59;1.90;;;0.60;;
1947;SDS011;974;52.400;9.818;2022-09-03T06:33:28;1.90;;;0.70;;
1947;SDS011;974;52.400;9.818;2022-09-03T06:35:56;1.92;;;0.60;;
1947;SDS011;974;52.400;9.818;2022-09-03T06:38:27;1.90;;;0.60;;
1947;SDS011;974;52.400;9.818;2022-09-03T06:40:56;1.90;;;0.60;;
1947;SDS011;974;52.400;9.818;2022-09-03T06:43:23;1.90;;;0.70;;
1947;SDS011;974;52.400;9.818;2022-09-03T06:45:57;1.90;;;0.60;;
1947;SDS011;974;52.400;9.818;2022-09-03T06:48:24;1.90;;;0.60;;
1947;SDS011;974;52.400;9.818;2022-09-03T06:51:00;1.90;;;0.60;;
1947;SDS011;974;52.400;9.818;2022-09-03T06:53:29;1.90;;;0.60;;
1947;SDS011;974;52.400;9.818;2022-09-03T06:55:58;1.90;;;0.70;;
1947;SDS011;974;52.400;9.818;2022-09-03T06:58:29;1.90;;;0.60;;
1947;SDS011;974;52.400;9.818;2022-09-03T07:03:32;1.90;;;0.60;;
1947;SDS011;974;52.400;9.818;2022-09-03T07:06:05;1.90;;;0.60;;
1947;SDS011;974;52.400;9.818;2022-09-03T07:08:32;1.90;;;0.60;;
1947;SDS011;974;52.400;9.818;2022-09-03T07:10:59;1.90;;;0.60;;
1947;SDS011;974;52.400;9.818;2022-09-03T07:13:27;1.90;;;0.60;;
1947;SDS011;974;52.400;9.818;2022-09-03T07:16:00;1.90;;;0.70;;
1947;SDS011;974;52.400;9.818;2022-09-03T07:18:30;1.90;;;0.60;;
1947;SDS011;974;52.400;9.818;2022-09-03T07:21:00;1.90;;;0.60;;
1947;SDS011;974;52.400;9.818;2022-09-03T07:23:28;1.90;;;0.60;;
1947;SDS011;974;52.400;9.818;2022-09-03T07:25:55;1.90;;;0.60;;
1947;SDS011;974;52.400;9.818;2022-09-03T07:28:22;1.90;;;0.60;;
1947;SDS011;974;52.400;9.818;2022-09-03T07:30:50;1.90;;;0.60;;
1947;SDS011;974;52.400;9.818;2022-09-03T07:33:17;1.90;;;0.60;;
1947;SDS011;974;52.400;9.818;2022-09-03T07:35:43;1.90;;;0.60;;
1947;SDS011;974;52.400;9.818;2022-09-03T07:38:09;1.90;;;0.60;;
1947;SDS011;974;52.400;9.818;2022-09-03T07:40:35;1.90;;;0.60;;
1947;SDS011;974;52.400;9.818;2022-09-03T07:43:03;1.92;;;0.60;;
1947;SDS011;974;52.400;9.818;2022-09-03T07:45:29;1.90;;;0.60;;
1947;SDS011;974;52.400;9.818;2022-09-03T07:47:57;1.90;;;0.60;;
1947;SDS011;974;52.400;9.818;2022-09-03T07:50:23;1.90;;;0.60;;
1947;SDS011;974;52.400;9.818;2022-09-03T07:52:54;1.90;;;0.60;;
1947;SDS011;974;52.400;9.818;2022-09-03T07:55:20;1.90;;;0.60;;
1947;SDS011;974;52.400;9.818;2022-09-03T07:57:46;1.90;;;0.60;;
1947;SDS011;974;52.400;9.818;2022-09-03T08:00:11;1.90;;;0.60;;
1947;SDS011;974;52.400;9.818;2022-09-03T08:02:38;1.90;;;0.60;;
1947;SDS011;974;52.400;9.818;2022-09-03T08:05:04;1.90;;;0.60;;
1947;SDS011;974;52.400;9.818;2022-09-03T08:07:29;1.90;;;0.60;;
1947;SDS011;974;52.400;9.818;2022-09-03T08:09:55;1.90;;;0.60;;
1947;SDS011;974;52.400;9.818;2022-09-03T08:12:21;1.90;;;0.60;;
1947;SDS011;974;52.400;9.818;2022-09-03T08:14:47;1.90;;;0.60;;
1947;SDS011;974;52.400;9.818;2022-09-03T08:17:12;1.90;;;0.60;;
1947;SDS011;974;52.400;9.818;2022-09-03T08:19:38;1.90;;;0.60;;
1947;SDS011;974;52.400;9.818;2022-09-03T08:22:05;1.90;;;0.60;;
1947;SDS011;974;52.400;9.818;2022-09-03T08:24:31;1.90;;;0.60;;
1947;SDS011;974;52.400;9.818;2022-09-03T08:26:58;1.90;;;0.60;;
1947;SDS011;974;52.400;9.818;2022-09-03T08:29:24;1.90;;;0.60;;
1947;SDS011;974;52.400;9.818;2022-09-03T08:31:51;1.90;;;0.60;;
1947;SDS011;974;52.400;9.818;2022-09-03T08:34:17;2.00;;;0.60;;
1947;SDS011;974;52.400;9.818;2022-09-03T08:36:43;2.00;;;0.60;;
1947;SDS011;974;52.400;9.818;2022-09-03T08:39:10;2.00;;;0.60;;
1947;SDS011;974;52.400;9.818;2022-09-03T08:44:22;1.95;;;0.60;;
1947;SDS011;974;52.400;9.818;2022-09-03T08:49:33;2.00;;;0.60;;
1947;SDS011;974;52.400;9.818;2022-09-03T08:52:07;1.92;;;0.60;;
1947;SDS011;974;52.400;9.818;2022-09-03T08:55:20;1.90;;;0.60;;
1947;SDS011;974;52.400;9.818;2022-09-03T08:58:11;1.90;;;0.60;;
1947;SDS011;974;52.400;9.818;2022-09-03T09:00:40;2.00;;;0.60;;
1947;SDS011;974;52.400;9.818;2022-09-03T09:03:23;1.92;;;0.60;;
1947;SDS011;974;52.400;9.818;2022-09-03T09:14:45;1.92;;;0.60;;
1947;SDS011;974;52.400;9.818;2022-09-03T09:23:07;1.90;;;0.60;;
1947;SDS011;974;52.400;9.818;2022-09-03T09:25:40;1.90;;;0.60;;
1947;SDS011;974;52.400;9.818;2022-09-03T09:30:41;1.95;;;0.60;;
1947;SDS011;974;52.400;9.818;2022-09-03T09:33:07;1.90;;;0.60;;
1947;SDS011;974;52.400;9.818;2022-09-03T09:35:33;1.90;;;0.60;;
1947;SDS011;974;52.400;9.818;2022-09-03T09:37:59;1.93;;;0.60;;
1947;SDS011;974;52.400;9.818;2022-09-03T09:40:29;2.00;;;0.60;;
1947;SDS011;974;52.400;9.818;2022-09-03T09:45:39;1.98;;;0.60;;
1947;SDS011;974;52.400;9.818;2022-09-03T09:48:30;2.00;;;0.60;;
1947;SDS011;974;52.400;9.818;2022-09-03T09:53:34;2.00;;;0.60;;
1947;SDS011;974;52.400;9.818;2022-09-03T09:56:00;2.00;;;0.60;;
1947;SDS011;974;52.400;9.818;2022-09-03T09:58:29;2.08;;;0.60;;
1947;SDS011;974;52.400;9.818;2022-09-03T10:03:38;2.00;;;0.60;;
1947;SDS011;974;52.400;9.818;2022-09-03T10:06:25;2.00;;;0.60;;
1947;SDS011;974;52.400;9.818;2022-09-03T10:09:13;2.00;;;0.60;;
1947;SDS011;974;52.400;9.818;2022-09-03T10:11:48;2.00;;;0.60;;
1947;SDS011;974;52.400;9.818;2022-09-03T10:14:24;2.00;;;0.60;;
1947;SDS011;974;52.400;9.818;2022-09-03T10:17:00;2.00;;;0.60;;
1947;SDS011;974;52.400;9.818;2022-09-03T10:22:55;2.00;;;0.60;;
1947;SDS011;974;52.400;9.818;2022-09-03T10:25:25;2.00;;;0.60;;
1947;SDS011;974;52.400;9.818;2022-09-03T10:27:59;2.00;;;0.60;;
1947;SDS011;974;52.400;9.818;2022-09-03T10:30:26;2.00;;;0.60;;
1947;SDS011;974;52.400;9.818;2022-09-03T10:35:42;2.00;;;0.60;;
1947;SDS011;974;52.400;9.818;2022-09-03T10:38:20;2.00;;;0.60;;
1947;SDS011;974;52.400;9.818;2022-09-03T10:46:18;2.00;;;0.60;;
1947;SDS011;974;52.400;9.818;2022-09-03T10:51:25;2.00;;;0.60;;
1947;SDS011;974;52.400;9.818;2022-09-03T10:57:15;2.00;;;0.60;;
1947;SDS011;974;52.400;9.818;2022-09-03T10:59:54;2.00;;;0.60;;
1947;SDS011;974;52.400;9.818;2022-09-03T11:05:21;2.00;;;0.60;;
1947;SDS011;974;52.400;9.818;2022-09-03T11:07:59;2.00;;;0.60;;
1947;SDS011;974;52.400;9.818;2022-09-03T11:10:32;1.90;;;0.60;;
1947;SDS011;974;52.400;9.818;2022-09-03T11:13:11;2.00;;;0.60;;
1947;SDS011;974;52.400;9.818;2022-09-03T11:20:44;2.00;;;0.60;;
1947;SDS011;974;52.400;9.818;2022-09-03T11:23:13;2.00;;;0.60;;
1947;SDS011;974;52.400;9.818;2022-09-03T11:25:41;2.10;;;0.60;;
1947;SDS011;974;52.400;9.818;2022-09-03T11:28:15;2.00;;;0.60;;
1947;SDS011;974;52.400;9.818;2022-09-03T11:31:16;2.00;;;0.60;;
1947;SDS011;974;52.400;9.818;2022-09-03T11:34:04;2.00;;;0.60;;
1947;SDS011;974;52.400;9.818;2022-09-03T11:36:38;2.00;;;0.60;;
1947;SDS011;974;52.400;9.818;2022-09-03T11:39:22;2.00;;;0.60;;
1947;SDS011;974;52.400;9.818;2022-09-03T11:41:56;2.00;;;0.60;;
1947;SDS011;974;52.400;9.818;2022-09-03T11:44:40;2.00;;;0.60;;
1947;SDS011;974;52.400;9.818;2022-09-03T11:47:15;2.00;;;0.60;;
1947;SDS011;974;52.400;9.818;2022-09-03T11:49:45;2.00;;;0.60;;
1947;SDS011;974;52.400;9.818;2022-09-03T11:52:14;2.00;;;0.60;;
1947;SDS011;974;52.400;9.818;2022-09-03T11:54:53;2.00;;;0.60;;
1947;SDS011;974;52.400;9.818;2022-09-03T11:57:24;2.00;;;0.60;;
1947;SDS011;974;52.400;9.818;2022-09-03T12:00:12;2.00;;;0.60;;
1947;SDS011;974;52.400;9.818;2022-09-03T12:02:43;2.00;;;0.60;;
1947;SDS011;974;52.400;9.818;2022-09-03T12:05:19;2.00;;;0.60;;
1947;SDS011;974;52.400;9.818;2022-09-03T12:10:40;2.00;;;0.60;;
1947;SDS011;974;52.400;9.818;2022-09-03T12:16:17;2.00;;;0.60;;
1947;SDS011;974;52.400;9.818;2022-09-03T12:18:46;2.00;;;0.60;;
1947;SDS011;974;52.400;9.818;2022-09-03T12:21:16;2.00;;;0.60;;
1947;SDS011;974;52.400;9.818;2022-09-03T12:23:46;2.00;;;0.60;;
1947;SDS011;974;52.400;9.818;2022-09-03T12:26:23;2.00;;;0.60;;
1947;SDS011;974;52.400;9.818;2022-09-03T12:28:55;2.00;;;0.60;;
1947;SDS011;974;52.400;9.818;2022-09-03T12:31:23;2.00;;;0.60;;
1947;SDS011;974;52.400;9.818;2022-09-03T12:36:22;2.00;;;0.60;;
1947;SDS011;974;52.400;9.818;2022-09-03T12:39:18;2.00;;;0.60;;
1947;SDS011;974;52.400;9.818;2022-09-03T12:41:59;2.00;;;0.60;;
1947;SDS011;974;52.400;9.818;2022-09-03T12:49:34;2.00;;;0.60;;
1947;SDS011;974;52.400;9.818;2022-09-03T12:52:04;2.00;;;0.60;;
1947;SDS011;974;52.400;9.818;2022-09-03T12:55:02;2.00;;;0.60;;
1947;SDS011;974;52.400;9.818;2022-09-03T12:57:44;2.00;;;0.60;;
1947;SDS011;974;52.400;9.818;2022-09-03T13:00:14;2.00;;;0.60;;
1947;SDS011;974;52.400;9.818;2022-09-03T13:02:48;2.00;;;0.60;;
1947;SDS011;974;52.400;9.818;2022-09-03T13:05:20;2.00;;;0.60;;
1947;SDS011;974;52.400;9.818;2022-09-03T13:07:54;2.10;;;0.60;;
1947;SDS011;974;52.400;9.818;2022-09-03T13:10:30;2.10;;;0.60;;
1947;SDS011;974;52.400;9.818;2022-09-03T13:13:06;2.00;;;0.60;;
1947;SDS011;974;52.400;9.818;2022-09-03T13:15:46;2.00;;;0.60;;
1947;SDS011;974;52.400;9.818;2022-09-03T13:18:32;2.00;;;0.60;;
1947;SDS011;974;52.400;9.818;2022-09-03T13:29:48;2.00;;;0.60;;
1947;SDS011;974;52.400;9.818;2022-09-03T13:32:25;2.10;;;0.60;;
1947;SDS011;974;52.400;9.818;2022-09-03T13:34:54;2.00;;;0.60;;
1947;SDS011;974;52.400;9.818;2022-09-03T13:39:59;2.00;;;0.60;;
1947;SDS011;974;52.400;9.818;2022-09-03T13:42:40;2.00;;;0.60;;
1947;SDS011;974;52.400;9.818;2022-09-03T13:45:15;2.00;;;0.60;;
1947;SDS011;974;52.400;9.818;2022-09-03T13:47:49;2.00;;;0.60;;
1947;SDS011;974;52.400;9.818;2022-09-03T13:50:43;2.00;;;0.60;;
1947;SDS011;974;52.400;9.818;2022-09-03T13:53:21;2.00;;;0.60;;
1947;SDS011;974;52.400;9.818;2022-09-03T13:56:06;2.00;;;0.60;;
1947;SDS011;974;52.400;9.818;2022-09-03T13:59:00;2.00;;;0.60;;
1947;SDS011;974;52.400;9.818;2022-09-03T14:07:14;2.00;;;0.60;;
1947;SDS011;974;52.400;9.818;2022-09-03T14:12:34;2.00;;;0.60;;
1947;SDS011;974;52.400;9.818;2022-09-03T14:15:19;2.00;;;0.60;;
1947;SDS011;974;52.400;9.818;2022-09-03T14:17:58;2.00;;;0.60;;
1947;SDS011;974;52.400;9.818;2022-09-03T14:20:43;2.00;;;0.60;;
1947;SDS011;974;52.400;9.818;2022-09-03T14:25:56;2.00;;;0.60;;
1947;SDS011;974;52.400;9.818;2022-09-03T14:28:28;2.00;;;0.60;;
1947;SDS011;974;52.400;9.818;2022-09-03T14:34:12;2.00;;;0.60;;
1947;SDS011;974;52.400;9.818;2022-09-03T14:37:22;2.00;;;0.60;;
1947;SDS011;974;52.400;9.818;2022-09-03T14:40:04;2.00;;;0.60;;
1947;SDS011;974;52.400;9.818;2022-09-03T14:45:14;2.00;;;0.60;;
1947;SDS011;974;52.400;9.818;2022-09-03T14:53:43;2.00;;;0.60;;
1947;SDS011;974;52.400;9.818;2022-09-03T15:07:46;2.00;;;0.60;;
1947;SDS011;974;52.400;9.818;2022-09-03T15:13:16;2.00;;;0.60;;
1947;SDS011;974;52.400;9.818;2022-09-03T15:21:38;2.00;;;0.60;;
1947;SDS011;974;52.400;9.818;2022-09-03T15:24:08;2.00;;;0.60;;
1947;SDS011;974;52.400;9.818;2022-09-03T15:27:31;2.00;;;0.60;;
1947;SDS011;974;52.400;9.818;2022-09-03T15:30:04;2.00;;;0.60;;
1947;SDS011;974;52.400;9.818;2022-09-03T15:35:06;2.00;;;0.60;;
1947;SDS011;974;52.400;9.818;2022-09-03T15:37:35;2.00;;;0.60;;
1947;SDS011;974;52.400;9.818;2022-09-03T15:40:07;2.00;;;0.60;;
1947;SDS011;974;52.400;9.818;2022-09-03T15:42:50;2.00;;;0.60;;
1947;SDS011;974;52.400;9.818;2022-09-03T15:47:52;2.00;;;0.60;;
1947;SDS011;974;52.400;9.818;2022-09-03T15:50:31;2.00;;;0.60;;
1947;SDS011;974;52.400;9.818;2022-09-03T15:53:19;2.00;;;0.60;;
1947;SDS011;974;52.400;9.818;2022-09-03T15:56:05;2.00;;;0.60;;
1947;SDS011;974;52.400;9.818;2022-09-03T15:58:33;2.00;;;0.60;;
1947;SDS011;974;52.400;9.818;2022-09-03T16:01:06;2.00;;;0.60;;
1947;SDS011;974;52.400;9.818;2022-09-03T16:03:46;2.00;;;0.60;;
1947;SDS011;974;52.400;9.818;2022-09-03T16:06:19;2.00;;;0.60;;
1947;SDS011;974;52.400;9.818;2022-09-03T16:09:04;1.93;;;0.60;;
1947;SDS011;974;52.400;9.818;2022-09-03T16:11:51;2.00;;;0.60;;
1947;SDS011;974;52.400;9.818;2022-09-03T16:14:38;2.00;;;0.60;;
1947;SDS011;974;52.400;9.818;2022-09-03T16:20:18;2.00;;;0.60;;
1947;SDS011;974;52.400;9.818;2022-09-03T16:23:06;2.00;;;0.60;;
1947;SDS011;974;52.400;9.818;2022-09-03T16:25:56;2.00;;;0.60;;
1947;SDS011;974;52.400;9.818;2022-09-03T16:28:29;2.00;;;0.60;;
1947;SDS011;974;52.400;9.818;2022-09-03T16:31:14;1.97;;;0.60;;
1947;SDS011;974;52.400;9.818;2022-09-03T16:36:57;2.00;;;0.60;;
1947;SDS011;974;52.400;9.818;2022-09-03T16:39:52;2.00;;;0.60;;
1947;SDS011;974;52.400;9.818;2022-09-03T16:42:26;2.00;;;0.60;;
1947;SDS011;974;52.400;9.818;2022-09-03T16:45:25;2.00;;;0.60;;
1947;SDS011;974;52.400;9.818;2022-09-03T16:59:46;2.00;;;0.60;;
1947;SDS011;974;52.400;9.818;2022-09-03T17:02:39;2.00;;;0.60;;
1947;SDS011;974;52.400;9.818;2022-09-03T17:19:35;2.00;;;0.60;;
1947;SDS011;974;52.400;9.818;2022-09-03T17:22:30;2.00;;;0.60;;
1947;SDS011;974;52.400;9.818;2022-09-03T17:28:04;2.00;;;0.60;;
1947;SDS011;974;52.400;9.818;2022-09-03T17:46:56;2.00;;;0.60;;
1947;SDS011;974;52.400;9.818;2022-09-03T17:49:45;2.00;;;0.60;;
1947;SDS011;974;52.400;9.818;2022-09-03T18:00:50;2.00;;;0.60;;
1947;SDS011;974;52.400;9.818;2022-09-03T18:03:40;2.00;;;0.60;;
1947;SDS011;974;52.400;9.818;2022-09-03T18:09:41;2.00;;;0.60;;
1947;SDS011;974;52.400;9.818;2022-09-03T18:12:03;2.00;;;0.60;;
1947;SDS011;974;52.400;9.818;2022-09-03T18:14:39;2.00;;;0.60;;
1947;SDS011;974;52.400;9.818;2022-09-03T18:19:54;2.00;;;0.70;;
1947;SDS011;974;52.400;9.818;2022-09-03T18:25:53;2.00;;;0.60;;
1947;SDS011;974;52.400;9.818;2022-09-03T18:28:49;2.00;;;0.60;;
1947;SDS011;974;52.400;9.818;2022-09-03T18:31:40;2.00;;;0.60;;
1947;SDS011;974;52.400;9.818;2022-09-03T18:34:28;2.00;;;0.60;;
1947;SDS011;974;52.400;9.818;2022-09-03T18:37:17;2.00;;;0.60;;
1947;SDS011;974;52.400;9.818;2022-09-03T18:40:06;2.00;;;0.60;;
1947;SDS011;974;52.400;9.818;2022-09-03T18:43:11;2.00;;;0.60;;
1947;SDS011;974;52.400;9.818;2022-09-03T18:46:09;2.00;;;0.60;;
1947;SDS011;974;52.400;9.818;2022-09-03T18:49:16;2.00;;;0.60;;
1947;SDS011;974;52.400;9.818;2022-09-03T18:52:30;1.97;;;0.60;;
1947;SDS011;974;52.400;9.818;2022-09-03T19:01:46;2.00;;;0.60;;
1947;SDS011;974;52.400;9.818;2022-09-03T19:10:27;2.00;;;0.60;;
1947;SDS011;974;52.400;9.818;2022-09-03T19:13:34;2.00;;;0.60;;
1947;SDS011;974;52.400;9.818;2022-09-03T19:16:22;2.00;;;0.60;;
1947;SDS011;974;52.400;9.818;2022-09-03T19:22:14;2.00;;;0.60;;
1947;SDS011;974;52.400;9.818;2022-09-03T19:25:16;2.00;;;0.60;;
1947;SDS011;974;52.400;9.818;2022-09-03T19:41:24;2.00;;;0.60;;
1947;SDS011;974;52.400;9.818;2022-09-03T19:47:24;2.00;;;0.60;;
1947;SDS011;974;52.400;9.818;2022-09-03T19:50:20;2.00;;;0.60;;
1947;SDS011;974;52.400;9.818;2022-09-03T19:53:11;2.00;;;0.60;;
1947;SDS011;974;52.400;9.818;2022-09-03T19:55:59;2.00;;;0.60;;
1947;SDS011;974;52.400;9.818;2022-09-03T19:58:57;2.00;;;0.60;;
1947;SDS011;974;52.400;9.818;2022-09-03T20:01:45;2.00;;;0.60;;
1947;SDS011;974;52.400;9.818;2022-09-03T20:04:32;2.00;;;0.60;;
1947;SDS011;974;52.400;9.818;2022-09-03T20:07:22;2.00;;;0.60;;
1947;SDS011;974;52.400;9.818;2022-09-03T20:10:09;2.00;;;0.60;;
1947;SDS011;974;52.400;9.818;2022-09-03T20:12:58;2.00;;;0.60;;
1947;SDS011;974;52.400;9.818;2022-09-03T20:18:16;2.00;;;0.60;;
1947;SDS011;974;52.400;9.818;2022-09-03T20:21:09;1.98;;;0.60;;
1947;SDS011;974;52.400;9.818;2022-09-03T20:29:46;2.00;;;0.60;;
1947;SDS011;974;52.400;9.818;2022-09-03T20:35:45;2.00;;;0.60;;
1947;SDS011;974;52.400;9.818;2022-09-03T20:39:17;2.00;;;0.60;;
1947;SDS011;974;52.400;9.818;2022-09-03T20:45:09;2.00;;;0.60;;
1947;SDS011;974;52.400;9.818;2022-09-03T20:56:29;2.00;;;0.60;;
1947;SDS011;974;52.400;9.818;2022-09-03T20:59:16;2.00;;;0.60;;
1947;SDS011;974;52.400;9.818;2022-09-03T21:02:07;2.00;;;0.60;;
1947;SDS011;974;52.400;9.818;2022-09-03T21:04:50;2.00;;;0.60;;
1947;SDS011;974;52.400;9.818;2022-09-03T21:16:16;2.00;;;0.60;;
1947;SDS011;974;52.400;9.818;2022-09-03T21:19:08;2.00;;;0.60;;